METAR Data
IDs: Format: Raw Decoded Include TAF

Data at: 0813 UTC 23 Sep 2018

KPPA 230755Z AUTO 18009KT 10SM CLR 11/07 A3012 RMK AO2 T01100067
KPPA 230735Z AUTO 19008KT 10SM CLR 12/07 A3012 RMK AO2 T01150068
KPPA 230715Z AUTO 19009KT 10SM CLR 12/07 A3013 RMK AO2 T01150067
KPPA 230655Z AUTO 19008KT 10SM CLR 11/07 A3013 RMK AO2 T01110066
KPPA 230635Z AUTO 18007KT 10SM CLR 12/07 A3013 RMK AO2 T01150065
KPPA 230615Z AUTO 18005KT 10SM CLR 13/07 A3014 RMK AO2 T01250067
KPPA 230555Z AUTO 17003KT 10SM CLR 13/07 A3014 RMK AO2 T01250066 10227 20121 402580069
KPPA 230535Z AUTO 15005KT 10SM CLR 13/06 A3014 RMK AO2 T01260062
KPPA 230515Z AUTO 15007KT 10SM CLR 13/06 A3014 RMK AO2 T01300062
KPPA 230455Z AUTO 15006KT 10SM CLR 14/06 A3014 RMK AO2 T01350061
KPPA 230435Z AUTO 14007KT 10SM CLR 14/06 A3014 RMK AO2 T01350062
KPPA 230415Z AUTO 14008KT 10SM CLR 13/06 A3014 RMK AO2 T01280062
KPPA 230355Z AUTO 14007KT 10SM CLR 13/07 A3015 RMK AO2 T01340065
KPPA 230335Z AUTO 14006KT 10SM CLR 14/07 A3016 RMK AO2 T01400070
KPPA 230315Z AUTO 14006KT 10SM CLR 14/07 A3016 RMK AO2 T01440070
KPPA 230255Z AUTO 13006KT 10SM CLR 15/07 A3016 RMK AO2 T01480066
KPPA 230235Z AUTO 13005KT 10SM CLR 16/08 A3016 RMK AO2 T01550077
KPPA 230215Z AUTO 13004KT 10SM CLR 17/07 A3015 RMK AO2 T01670071
KPPA 230155Z AUTO 13004KT 10SM CLR 16/07 A3014 RMK AO2 T01620071
KPPA 230135Z AUTO 12005KT 10SM CLR 17/07 A3014 RMK AO2 T01710070
KPPA 230115Z AUTO 12007KT 10SM CLR 18/07 A3014 RMK AO2 T01800071
KPPA 230055Z AUTO 12007KT 10SM CLR 19/07 A3014 RMK AO2 T01850072
KPPA 230030Z AUTO 11007KT 10SM CLR 20/07 A3013 RMK AO2 T01990067
KPPA 230015Z AUTO 10005KT 10SM CLR 21/06 A3013 RMK AO2 T02110061
KPPA 222355Z AUTO 09006KT 10SM CLR 23/05 A3013 RMK AO2 T02290052 10258 20203
KPPA 222335Z AUTO 08007KT 10SM CLR 24/03 A3013 RMK AO2 T02390030
KPPA 222315Z AUTO 07008KT 10SM CLR 24/03 A3013 RMK AO2 T02440031
KPPA 222255Z AUTO 09009KT 10SM CLR 25/03 A3014 RMK AO2 T02490030
KPPA 222235Z AUTO 07007KT 10SM CLR 25/00 A3014 RMK AO2 T02510003
KPPA 222215Z AUTO 06008KT 10SM CLR 25/01 A3014 RMK AO2 T02510009
KPPA 222155Z AUTO 09006KT 060V120 10SM CLR 26/03 A3014 RMK AO2 T02550028
KPPA 222135Z AUTO 05007KT 10SM CLR 26/02 A3014 RMK AO2 T02550021
KPPA 222115Z AUTO 05008KT 10SM CLR 25/02 A3016 RMK AO2 T02530022
KPPA 222055Z AUTO 05008KT 10SM CLR 25/02 A3016 RMK AO2 T02540015
KPPA 222035Z AUTO 03008KT 10SM CLR 25/03 A3017 RMK AO2 T02520032
KPPA 222015Z AUTO 01006KT 10SM CLR 25/03 A3018 RMK AO2 T02460026
KPPA 221955Z AUTO 03006KT 10SM CLR 24/04 A3019 RMK AO2 T02430038
KPPA 221935Z AUTO 01006KT 10SM CLR 24/03 A3020 RMK AO2 T02390034
KPPA 221915Z AUTO 36004KT 10SM CLR 23/06 A3021 RMK AO2 T02330055
KPPA 221855Z AUTO 35007KT 10SM CLR 23/06 A3022 RMK AO2 T02260055
KPPA 221835Z AUTO 35009KT 10SM CLR 22/06 A3023 RMK AO2 T02150063
KPPA 221815Z AUTO 36009KT 10SM CLR 21/07 A3023 RMK AO2 T02120069
KPPA 221755Z AUTO 01008G14KT 10SM CLR 20/07 A3025 RMK AO2 T02020068 10202 20069
KPPA 221735Z AUTO 35007KT 10SM CLR 19/07 A3026 RMK AO2 T01920072
KPPA 221715Z AUTO 35008KT 10SM CLR 19/08 A3027 RMK AO2 T01870081
KPPA 221655Z AUTO 35006KT 10SM CLR 18/09 A3027 RMK AO2 T01780094
KPPA 221635Z AUTO 34007KT 10SM CLR 17/09 A3027 RMK AO2 T01690088
KPPA 221615Z AUTO 35008KT 10SM CLR 16/10 A3027 RMK AO2 T01600095
KPPA 221555Z AUTO 36009KT 10SM CLR 15/10 A3027 RMK AO2 T01510098
KPPA 221535Z AUTO 01007KT 10SM CLR 14/10 A3028 RMK AO2 T01420102
KPPA 221515Z AUTO 02008KT 10SM CLR 13/10 A3028 RMK AO2 T01310102
KPPA 221455Z AUTO 03009KT 10SM CLR 12/10 A3028 RMK AO2 T01240100
KPPA 221435Z AUTO 02009KT 10SM CLR 12/10 A3029 RMK AO2 T01160097
KPPA 221415Z AUTO 36006KT 10SM CLR 11/10 A3029 RMK AO2 T01100095
KPPA 221355Z AUTO 34005KT 10SM CLR 10/09 A3029 RMK AO2 T00960086
KPPA 221330Z AUTO 29004KT 10SM CLR 08/08 A3029 RMK AO2 T00840076
KPPA 221315Z AUTO 29005KT 10SM CLR 08/07 A3029 RMK AO2 T00770070
KPPA 221255Z AUTO 32006KT 10SM CLR 08/07 A3028 RMK AO2 T00750066
KPPA 221230Z AUTO 34005KT 10SM CLR 07/07 A3029 RMK AO2 T00730065
KPPA 221215Z AUTO 35007KT 10SM CLR 08/07 A3028 RMK AO2 T00750065
KPPA 221155Z AUTO 01005KT 10SM CLR 08/07 A3029 RMK AO2 T00780067 10107 20078
KPPA 221135Z AUTO 02006KT 10SM CLR 08/07 A3028 RMK AO2 T00810070
KPPA 221115Z AUTO 01005KT 10SM CLR 08/07 A3028 RMK AO2 T00820070
KPPA 221055Z AUTO 01004KT 10SM CLR 09/07 A3028 RMK AO2 T00860071
KPPA 221035Z AUTO 36006KT 10SM CLR 09/07 A3028 RMK AO2 T00900073
KPPA 221015Z AUTO 01006KT 10SM CLR 09/07 A3028 RMK AO2 T00900072
KPPA 220955Z AUTO 01006KT 10SM CLR 09/07 A3028 RMK AO2 T00900071
KPPA 220935Z AUTO 02008KT 10SM CLR 10/07 A3028 RMK AO2 T00950073
KPPA 220915Z AUTO 02008KT 10SM CLR 10/08 A3027 RMK AO2 T00950075
KPPA 220855Z AUTO 02007KT 10SM CLR 10/07 A3028 RMK AO2 T00950073
KPPA 220835Z AUTO 01007KT 10SM CLR 10/08 A3029 RMK AO2 T00970075
KPPA 220815Z AUTO 01007KT 10SM CLR 10/07 A3029 RMK AO2 T00970073
KPPA 220755Z AUTO 01008KT 10SM CLR 10/07 A3029 RMK AO2 T00970071
KPPA 220735Z AUTO 01007KT 10SM CLR 10/07 A3029 RMK AO2 LTG DSNT SE T00960071
KPPA 220715Z AUTO 01006KT 10SM CLR 10/07 A3030 RMK AO2 T00980072
KPPA 220655Z AUTO 01006KT 10SM CLR 10/08 A3030 RMK AO2 T01010075
KPPA 220635Z AUTO 36006KT 10SM CLR 10/08 A3031 RMK AO2 T00990077
KPPA 220615Z AUTO 35005KT 10SM CLR 11/08 A3032 RMK AO2 T01050080
KPPA 220555Z AUTO 33007KT 10SM CLR 11/08 A3032 RMK AO2 T01070081 10195 20106 402150106
KPPA 220535Z AUTO 34007KT 10SM CLR 11/08 A3032 RMK AO2 T01060080
KPPA 220515Z AUTO 35006KT 10SM CLR 11/08 A3032 RMK AO2 T01100080
KPPA 220455Z AUTO 35008KT 10SM CLR 11/08 A3032 RMK AO2 T01100078
KPPA 220435Z AUTO 01006KT 10SM CLR 12/08 A3032 RMK AO2 T01200080
KPPA 220415Z AUTO 02005KT 10SM CLR 12/08 A3032 RMK AO2 T01200083
KPPA 220355Z AUTO 01005KT 10SM CLR 12/09 A3032 RMK AO2 T01220085
KPPA 220335Z AUTO 02005KT 10SM CLR 13/09 A3032 RMK AO2 T01250090
KPPA 220315Z AUTO 02006KT 10SM CLR 13/10 A3032 RMK AO2 T01250096
KPPA 220255Z AUTO 04005KT 10SM CLR 13/10 A3032 RMK AO2 T01280095
KPPA 220235Z AUTO 05005KT 10SM CLR 14/10 A3032 RMK AO2 T01360098
KPPA 220215Z AUTO 06004KT 10SM CLR 14/10 A3030 RMK AO2 T01430100
KPPA 220155Z AUTO 06004KT 10SM CLR 15/10 A3029 RMK AO2 T01450100
KPPA 220135Z AUTO 05004KT 10SM SCT031 SCT038 15/10 A3028 RMK AO2 T01490097
KPPA 220115Z AUTO 05005KT 10SM SCT032 BKN040 16/10 A3028 RMK AO2 T01600096
KPPA 220055Z AUTO 04007KT 10SM SCT030 BKN038 17/10 A3027 RMK AO2 T01650095
KPPA 220035Z AUTO 04009KT 10SM BKN032 18/09 A3027 RMK AO2 T01770094
KPPA 220015Z AUTO 05011KT 10SM CLR 19/10 A3026 RMK AO2 T01850104
KPPA 212355Z AUTO 06013KT 10SM SCT034 20/11 A3025 RMK AO2 T01950112 10205 20165
KPPA 212335Z AUTO 05012KT 10SM BKN034 20/11 A3025 RMK AO2 T01950112
KPPA 212315Z AUTO 05012KT 10SM BKN034 20/11 A3024 RMK AO2 T02010111
KPPA 212255Z AUTO 05014G21KT 10SM BKN034 20/11 A3024 RMK AO2 T02010108
KPPA 212235Z AUTO 05018KT 10SM SCT029 SCT035 SCT050 20/11 A3023 RMK AO2 T02030108
KPPA 212215Z AUTO 06018G21KT 10SM SCT044 SCT050 20/11 A3023 RMK AO2 T02020112
KPPA 212155Z AUTO 04015KT 10SM SCT027 SCT042 OVC050 20/12 A3023 RMK AO2 T01950118
KPPA 212135Z AUTO 05014KT 10SM BKN025 OVC050 20/12 A3023 RMK AO2 T01970123
KPPA 212115Z AUTO 03018G22KT 10SM BKN022 OVC041 19/13 A3022 RMK AO2 T01940127
KPPA 212055Z AUTO 05019KT 10SM SCT018 OVC039 20/13 A3022 RMK AO2 T01980128
KPPA 212035Z AUTO 04019G24KT 10SM BKN018 BKN035 OVC049 19/14 A3022 RMK AO2 T01860136
KPPA 212015Z AUTO 05020G24KT 10SM OVC014 18/14 A3022 RMK AO2 T01790138